<?xml version="1.0" encoding="UTF-8" standalone="no" ?>
<gpx xmlns="http://www.topografix.com/GPX/1/1" xmlns:xsi="http://www.w3.org/2001/XMLSchema-instance" xsi:schemaLocation="http://www.topografix.com/GPX/1/1 http://www.topografix.com/GPX/1/1/gpx.xsd" version="1.1" creator="VisuGPX - https://www.visugpx.com">
  <metadata>
    <name>pierre des 3 messieurs</name>
    <desc><![CDATA[Circuit non balisé à faire avec la carte en main.]]></desc>
  </metadata>
  <trk>
    <name><![CDATA[OR-7822282--Tuilière (La):cascade de bout, pierre 3 messieurs, cabane maquis ...]]></name>
    <trkseg>
      <trkpt lat="45.946" lon="3.75138">
        <ele>863</ele>
        <time>2017-09-20T08:45:09Z</time>
      </trkpt>
      <trkpt lat="45.94551" lon="3.75241">
        <ele>865</ele>
        <time>2017-09-20T08:47:09Z</time>
      </trkpt>
      <trkpt lat="45.94533" lon="3.75301">
        <ele>867</ele>
        <time>2017-09-20T08:49:09Z</time>
      </trkpt>
      <trkpt lat="45.94458" lon="3.75331">
        <ele>876</ele>
        <time>2017-09-20T08:51:09Z</time>
      </trkpt>
      <trkpt lat="45.94393" lon="3.75349">
        <ele>877</ele>
        <time>2017-09-20T08:53:09Z</time>
      </trkpt>
      <trkpt lat="45.94336" lon="3.75297">
        <ele>874</ele>
        <time>2017-09-20T08:55:09Z</time>
      </trkpt>
      <trkpt lat="45.94288" lon="3.75198">
        <ele>870</ele>
        <time>2017-09-20T08:57:09Z</time>
      </trkpt>
      <trkpt lat="45.94252" lon="3.75083">
        <ele>871</ele>
        <time>2017-09-20T08:59:09Z</time>
      </trkpt>
      <trkpt lat="45.9413" lon="3.75113">
        <ele>883</ele>
        <time>2017-09-20T09:01:09Z</time>
      </trkpt>
      <trkpt lat="45.94136" lon="3.75173">
        <ele>874</ele>
        <time>2017-09-20T09:03:09Z</time>
      </trkpt>
      <trkpt lat="45.9413" lon="3.75241">
        <ele>866</ele>
        <time>2017-09-20T09:05:09Z</time>
      </trkpt>
      <trkpt lat="45.94022" lon="3.75365">
        <ele>876</ele>
        <time>2017-09-20T09:07:09Z</time>
      </trkpt>
      <trkpt lat="45.9402" lon="3.75409">
        <ele>868</ele>
        <time>2017-09-20T09:09:09Z</time>
      </trkpt>
      <trkpt lat="45.9396" lon="3.75503">
        <ele>876</ele>
        <time>2017-09-20T09:11:09Z</time>
      </trkpt>
      <trkpt lat="45.93885" lon="3.75598">
        <ele>866</ele>
        <time>2017-09-20T09:13:09Z</time>
      </trkpt>
      <trkpt lat="45.9379" lon="3.75593">
        <ele>879</ele>
        <time>2017-09-20T09:15:09Z</time>
      </trkpt>
      <trkpt lat="45.93641" lon="3.75658">
        <ele>880</ele>
        <time>2017-09-20T09:17:09Z</time>
      </trkpt>
      <trkpt lat="45.93524" lon="3.75645">
        <ele>890</ele>
        <time>2017-09-20T09:19:09Z</time>
      </trkpt>
      <trkpt lat="45.9342" lon="3.75559">
        <ele>897</ele>
        <time>2017-09-20T09:21:09Z</time>
      </trkpt>
      <trkpt lat="45.93297" lon="3.75433">
        <ele>893</ele>
        <time>2017-09-20T09:23:09Z</time>
      </trkpt>
      <trkpt lat="45.93259" lon="3.75284">
        <ele>895</ele>
        <time>2017-09-20T09:25:09Z</time>
      </trkpt>
      <trkpt lat="45.93286" lon="3.75486">
        <ele>887</ele>
        <time>2017-09-20T09:27:09Z</time>
      </trkpt>
      <trkpt lat="45.93283" lon="3.75607">
        <ele>879</ele>
        <time>2017-09-20T09:29:09Z</time>
      </trkpt>
      <trkpt lat="45.93289" lon="3.7573">
        <ele>871</ele>
        <time>2017-09-20T09:31:09Z</time>
      </trkpt>
      <trkpt lat="45.93256" lon="3.75831">
        <ele>859</ele>
        <time>2017-09-20T09:33:09Z</time>
      </trkpt>
      <trkpt lat="45.93312" lon="3.76041">
        <ele>842</ele>
        <time>2017-09-20T09:35:09Z</time>
      </trkpt>
      <trkpt lat="45.9325" lon="3.75876">
        <ele>853</ele>
        <time>2017-09-20T09:37:09Z</time>
      </trkpt>
      <trkpt lat="45.93251" lon="3.76252">
        <ele>806</ele>
        <time>2017-09-20T09:39:09Z</time>
      </trkpt>
      <trkpt lat="45.93179" lon="3.76071">
        <ele>819</ele>
        <time>2017-09-20T09:41:09Z</time>
      </trkpt>
      <trkpt lat="45.93236" lon="3.76209">
        <ele>809</ele>
        <time>2017-09-20T09:43:09Z</time>
      </trkpt>
      <trkpt lat="45.93238" lon="3.75937">
        <ele>843</ele>
        <time>2017-09-20T09:45:09Z</time>
      </trkpt>
      <trkpt lat="45.93229" lon="3.75881">
        <ele>849</ele>
        <time>2017-09-20T09:47:09Z</time>
      </trkpt>
      <trkpt lat="45.93109" lon="3.75774">
        <ele>843</ele>
        <time>2017-09-20T09:49:09Z</time>
      </trkpt>
      <trkpt lat="45.93161" lon="3.75632">
        <ele>855</ele>
        <time>2017-09-20T09:51:09Z</time>
      </trkpt>
      <trkpt lat="45.93068" lon="3.75589">
        <ele>858</ele>
        <time>2017-09-20T09:53:09Z</time>
      </trkpt>
      <trkpt lat="45.93035" lon="3.75722">
        <ele>845</ele>
        <time>2017-09-20T09:55:09Z</time>
      </trkpt>
      <trkpt lat="45.92972" lon="3.75799">
        <ele>848</ele>
        <time>2017-09-20T09:57:09Z</time>
      </trkpt>
      <trkpt lat="45.92787" lon="3.75825">
        <ele>861</ele>
        <time>2017-09-20T09:59:09Z</time>
      </trkpt>
      <trkpt lat="45.92748" lon="3.75919">
        <ele>863</ele>
        <time>2017-09-20T10:01:09Z</time>
      </trkpt>
      <trkpt lat="45.92694" lon="3.75945">
        <ele>875</ele>
        <time>2017-09-20T10:03:09Z</time>
      </trkpt>
      <trkpt lat="45.92653" lon="3.75996">
        <ele>884</ele>
        <time>2017-09-20T10:05:09Z</time>
      </trkpt>
      <trkpt lat="45.92617" lon="3.76018">
        <ele>890</ele>
        <time>2017-09-20T10:07:09Z</time>
      </trkpt>
      <trkpt lat="45.92548" lon="3.75997">
        <ele>906</ele>
        <time>2017-09-20T10:09:09Z</time>
      </trkpt>
      <trkpt lat="45.92494" lon="3.75962">
        <ele>914</ele>
        <time>2017-09-20T10:11:09Z</time>
      </trkpt>
      <trkpt lat="45.92399" lon="3.75902">
        <ele>930</ele>
        <time>2017-09-20T10:13:09Z</time>
      </trkpt>
      <trkpt lat="45.9236" lon="3.75859">
        <ele>931</ele>
        <time>2017-09-20T10:15:09Z</time>
      </trkpt>
      <trkpt lat="45.923" lon="3.75834">
        <ele>941</ele>
        <time>2017-09-20T10:17:09Z</time>
      </trkpt>
      <trkpt lat="45.92235" lon="3.75791">
        <ele>948</ele>
        <time>2017-09-20T10:19:09Z</time>
      </trkpt>
      <trkpt lat="45.92199" lon="3.75761">
        <ele>951</ele>
        <time>2017-09-20T10:21:09Z</time>
      </trkpt>
      <trkpt lat="45.92133" lon="3.75731">
        <ele>959</ele>
        <time>2017-09-20T10:23:09Z</time>
      </trkpt>
      <trkpt lat="45.92097" lon="3.75726">
        <ele>964</ele>
        <time>2017-09-20T10:25:09Z</time>
      </trkpt>
      <trkpt lat="45.92059" lon="3.75718">
        <ele>966</ele>
        <time>2017-09-20T10:27:09Z</time>
      </trkpt>
      <trkpt lat="45.91879" lon="3.75718">
        <ele>954</ele>
        <time>2017-09-20T10:29:09Z</time>
      </trkpt>
      <trkpt lat="45.91811" lon="3.75731">
        <ele>947</ele>
        <time>2017-09-20T10:31:09Z</time>
      </trkpt>
      <trkpt lat="45.91775" lon="3.75748">
        <ele>943</ele>
        <time>2017-09-20T10:33:09Z</time>
      </trkpt>
      <trkpt lat="45.91714" lon="3.75765">
        <ele>938</ele>
        <time>2017-09-20T10:35:09Z</time>
      </trkpt>
      <trkpt lat="45.91703" lon="3.75705">
        <ele>943</ele>
        <time>2017-09-20T10:37:09Z</time>
      </trkpt>
      <trkpt lat="45.91734" lon="3.75731">
        <ele>940</ele>
        <time>2017-09-20T10:39:09Z</time>
      </trkpt>
      <trkpt lat="45.91663" lon="3.7566">
        <ele>948</ele>
        <time>2017-09-20T10:41:09Z</time>
      </trkpt>
      <trkpt lat="45.91709" lon="3.75497">
        <ele>954</ele>
        <time>2017-09-20T10:43:09Z</time>
      </trkpt>
      <trkpt lat="45.91823" lon="3.75417">
        <ele>958</ele>
        <time>2017-09-20T10:45:09Z</time>
      </trkpt>
      <trkpt lat="45.9186" lon="3.75373">
        <ele>960</ele>
        <time>2017-09-20T10:47:09Z</time>
      </trkpt>
      <trkpt lat="45.91856" lon="3.75288">
        <ele>964</ele>
        <time>2017-09-20T10:49:09Z</time>
      </trkpt>
      <trkpt lat="45.91841" lon="3.75228">
        <ele>966</ele>
        <time>2017-09-20T10:51:09Z</time>
      </trkpt>
      <trkpt lat="45.91847" lon="3.75181">
        <ele>967</ele>
        <time>2017-09-20T10:53:09Z</time>
      </trkpt>
      <trkpt lat="45.91795" lon="3.75166">
        <ele>969</ele>
        <time>2017-09-20T10:55:09Z</time>
      </trkpt>
      <trkpt lat="45.91863" lon="3.75166">
        <ele>967</ele>
        <time>2017-09-20T10:57:09Z</time>
      </trkpt>
      <trkpt lat="45.91855" lon="3.75042">
        <ele>965</ele>
        <time>2017-09-20T10:59:09Z</time>
      </trkpt>
      <trkpt lat="45.91905" lon="3.74928">
        <ele>959</ele>
        <time>2017-09-20T11:01:09Z</time>
      </trkpt>
      <trkpt lat="45.91963" lon="3.74907">
        <ele>958</ele>
        <time>2017-09-20T11:03:09Z</time>
      </trkpt>
      <trkpt lat="45.92023" lon="3.74855">
        <ele>951</ele>
        <time>2017-09-20T11:05:09Z</time>
      </trkpt>
      <trkpt lat="45.92094" lon="3.74885">
        <ele>952</ele>
        <time>2017-09-20T11:07:09Z</time>
      </trkpt>
      <trkpt lat="45.92202" lon="3.74798">
        <ele>939</ele>
        <time>2017-09-20T11:09:09Z</time>
      </trkpt>
      <trkpt lat="45.92272" lon="3.74829">
        <ele>942</ele>
        <time>2017-09-20T11:11:09Z</time>
      </trkpt>
      <trkpt lat="45.92358" lon="3.74819">
        <ele>945</ele>
        <time>2017-09-20T11:13:09Z</time>
      </trkpt>
      <trkpt lat="45.92421" lon="3.74832">
        <ele>946</ele>
        <time>2017-09-20T11:15:09Z</time>
      </trkpt>
      <trkpt lat="45.9247" lon="3.74855">
        <ele>947</ele>
        <time>2017-09-20T11:17:09Z</time>
      </trkpt>
      <trkpt lat="45.92518" lon="3.74868">
        <ele>946</ele>
        <time>2017-09-20T11:19:09Z</time>
      </trkpt>
      <trkpt lat="45.92563" lon="3.74881">
        <ele>944</ele>
        <time>2017-09-20T11:21:09Z</time>
      </trkpt>
      <trkpt lat="45.92557" lon="3.74816">
        <ele>944</ele>
        <time>2017-09-20T11:23:09Z</time>
      </trkpt>
      <trkpt lat="45.92574" lon="3.74877">
        <ele>943</ele>
        <time>2017-09-20T11:25:09Z</time>
      </trkpt>
      <trkpt lat="45.92676" lon="3.74924">
        <ele>934</ele>
        <time>2017-09-20T11:27:09Z</time>
      </trkpt>
      <trkpt lat="45.92769" lon="3.7502">
        <ele>933</ele>
        <time>2017-09-20T11:29:09Z</time>
      </trkpt>
      <trkpt lat="45.92896" lon="3.75031">
        <ele>923</ele>
        <time>2017-09-20T11:31:09Z</time>
      </trkpt>
      <trkpt lat="45.92945" lon="3.75053">
        <ele>921</ele>
        <time>2017-09-20T11:33:09Z</time>
      </trkpt>
      <trkpt lat="45.9305" lon="3.75117">
        <ele>911</ele>
        <time>2017-09-20T11:35:09Z</time>
      </trkpt>
      <trkpt lat="45.93166" lon="3.75173">
        <ele>900</ele>
        <time>2017-09-20T11:37:09Z</time>
      </trkpt>
      <trkpt lat="45.93232" lon="3.75138">
        <ele>909</ele>
        <time>2017-09-20T11:39:09Z</time>
      </trkpt>
      <trkpt lat="45.93278" lon="3.75207">
        <ele>904</ele>
        <time>2017-09-20T11:41:09Z</time>
      </trkpt>
      <trkpt lat="45.93282" lon="3.75304">
        <ele>899</ele>
        <time>2017-09-20T11:43:09Z</time>
      </trkpt>
      <trkpt lat="45.9332" lon="3.75406">
        <ele>900</ele>
        <time>2017-09-20T11:45:09Z</time>
      </trkpt>
      <trkpt lat="45.93403" lon="3.75484">
        <ele>902</ele>
        <time>2017-09-20T11:47:09Z</time>
      </trkpt>
      <trkpt lat="45.93509" lon="3.75608">
        <ele>895</ele>
        <time>2017-09-20T11:49:09Z</time>
      </trkpt>
      <trkpt lat="45.93626" lon="3.7563">
        <ele>885</ele>
        <time>2017-09-20T11:51:09Z</time>
      </trkpt>
      <trkpt lat="45.93709" lon="3.75589">
        <ele>888</ele>
        <time>2017-09-20T11:53:09Z</time>
      </trkpt>
      <trkpt lat="45.93799" lon="3.7555">
        <ele>891</ele>
        <time>2017-09-20T11:55:09Z</time>
      </trkpt>
      <trkpt lat="45.93869" lon="3.75557">
        <ele>879</ele>
        <time>2017-09-20T11:57:09Z</time>
      </trkpt>
      <trkpt lat="45.93942" lon="3.7546">
        <ele>886</ele>
        <time>2017-09-20T11:59:09Z</time>
      </trkpt>
      <trkpt lat="45.9404" lon="3.75297">
        <ele>881</ele>
        <time>2017-09-20T12:01:09Z</time>
      </trkpt>
      <trkpt lat="45.941" lon="3.7522">
        <ele>875</ele>
        <time>2017-09-20T12:03:09Z</time>
      </trkpt>
      <trkpt lat="45.94111" lon="3.75099">
        <ele>889</ele>
        <time>2017-09-20T12:05:09Z</time>
      </trkpt>
      <trkpt lat="45.94202" lon="3.75057">
        <ele>883</ele>
        <time>2017-09-20T12:07:09Z</time>
      </trkpt>
      <trkpt lat="45.94261" lon="3.75044">
        <ele>878</ele>
        <time>2017-09-20T12:09:09Z</time>
      </trkpt>
      <trkpt lat="45.94303" lon="3.75143">
        <ele>877</ele>
        <time>2017-09-20T12:11:09Z</time>
      </trkpt>
      <trkpt lat="45.94333" lon="3.75228">
        <ele>879</ele>
        <time>2017-09-20T12:13:09Z</time>
      </trkpt>
      <trkpt lat="45.94391" lon="3.75304">
        <ele>878</ele>
        <time>2017-09-20T12:15:09Z</time>
      </trkpt>
      <trkpt lat="45.9445" lon="3.7528">
        <ele>877</ele>
        <time>2017-09-20T12:17:09Z</time>
      </trkpt>
      <trkpt lat="45.9452" lon="3.75256">
        <ele>868</ele>
        <time>2017-09-20T12:19:09Z</time>
      </trkpt>
      <trkpt lat="45.9457" lon="3.75172">
        <ele>863</ele>
        <time>2017-09-20T12:21:09Z</time>
      </trkpt>
      <trkpt lat="45.94591" lon="3.75114">
        <ele>866</ele>
        <time>2017-09-20T12:23:09Z</time>
      </trkpt>
      <trkpt lat="45.94572" lon="3.75133">
        <ele>866</ele>
        <time>2017-09-20T12:25:09Z</time>
      </trkpt>
    </trkseg>
  </trk>
</gpx>